createdAt,value
2022-08-10T00:00:43.850Z,51.57
2022-08-10T00:03:12.753Z,51.51
2022-08-10T00:05:43.709Z,51.76
2022-08-10T00:08:24.053Z,52.03
2022-08-10T00:15:01.481Z,52.37
2022-08-10T00:17:28.706Z,52.31
2022-08-10T00:20:04.178Z,52.24
2022-08-10T00:22:36.590Z,52.27
2022-08-10T00:25:20.036Z,51.78
2022-08-10T00:28:02.504Z,52.51
2022-08-10T00:30:31.188Z,52.27
2022-08-10T00:32:58.491Z,52.21
2022-08-10T00:35:26.010Z,52.38
2022-08-10T00:37:56.350Z,52.27
2022-08-10T00:40:36.936Z,52.36
2022-08-10T00:43:07.121Z,52.54
2022-08-10T00:45:36.072Z,51.98
2022-08-10T00:48:04.306Z,52.07
2022-08-10T00:50:32.030Z,52.08
2022-08-10T00:52:59.501Z,52.24
2022-08-10T00:55:27.284Z,52.49
2022-08-10T00:57:56.706Z,52.65
2022-08-10T01:00:27.063Z,53.01
2022-08-10T01:12:39.092Z,53.05
2022-08-10T01:19:27.923Z,53.22
2022-08-10T01:22:52.375Z,53.33
2022-08-10T01:26:10.540Z,53.68
2022-08-10T01:28:58.228Z,52.95
2022-08-10T01:31:33.860Z,53.09
2022-08-10T01:34:12.760Z,53.16
2022-08-10T01:36:49.938Z,53.21
2022-08-10T01:39:26.990Z,52.89
2022-08-10T01:42:02.777Z,53.01
2022-08-10T01:44:46.315Z,53.27
2022-08-10T01:47:22.075Z,53.43
2022-08-10T01:49:56.922Z,53.68
2022-08-10T01:53:09.837Z,53.32
2022-08-10T01:55:43.068Z,53.54
2022-08-10T01:59:06.911Z,53.27
2022-08-10T02:01:52.526Z,53.34
2022-08-10T02:04:24.327Z,53.57
2022-08-10T02:06:54.326Z,53.71
2022-08-10T02:09:27.832Z,53.88
2022-08-10T02:12:08.509Z,53.78
2022-08-10T02:14:45.116Z,53.49
2022-08-10T02:17:57.685Z,53.48
2022-08-10T02:20:15.388Z,53.46
2022-08-10T02:22:49.018Z,53.57
2022-08-10T02:25:41.610Z,53.68
2022-08-10T02:28:09.337Z,54.06
2022-08-10T02:34:48.799Z,53.82
2022-08-10T02:37:24.993Z,53.71
2022-08-10T02:39:54.182Z,53.93
2022-08-10T02:45:23.508Z,53.78
2022-08-10T02:45:31.740Z,53.92
2022-08-10T02:48:06.756Z,53.95
2022-08-10T02:50:41.815Z,53.76
2022-08-10T02:53:54.575Z,53.64
2022-08-10T02:56:35.576Z,53.77
2022-08-10T02:59:17.166Z,54.26
2022-08-10T03:01:50.374Z,54.12
2022-08-10T03:04:55.887Z,53.83
2022-08-10T03:07:43.104Z,53.78
2022-08-10T03:10:19.753Z,54.01
2022-08-10T03:12:53.453Z,54.37
2022-08-10T03:15:24.291Z,54.34
2022-08-10T03:17:58.314Z,53.95
2022-08-10T03:20:36.534Z,54.31
2022-08-10T03:23:21.604Z,54.30
2022-08-10T03:25:54.598Z,54.42
2022-08-10T03:28:30.258Z,54.41
2022-08-10T03:31:01.788Z,54.54
2022-08-10T03:33:37.574Z,54.63
2022-08-10T03:36:41.864Z,54.45
2022-08-10T03:38:54.302Z,54.67
2022-08-10T03:49:39.835Z,54.96
2022-08-10T03:52:08.079Z,55.22
2022-08-10T03:54:36.123Z,55.37
2022-08-10T03:57:04.097Z,54.95
2022-08-10T03:59:32.406Z,54.99
2022-08-10T04:02:45.056Z,55.25
2022-08-10T04:05:39.702Z,55.32
2022-08-10T04:08:08.160Z,55.17
2022-08-10T04:14:38.675Z,55.46
2022-08-10T04:20:55.173Z,55.59
2022-08-10T04:23:29.196Z,55.60
2022-08-10T04:25:57.373Z,55.75
2022-08-10T04:32:26.605Z,55.48
2022-08-10T04:34:58.117Z,55.36
2022-08-10T04:37:27.249Z,55.18
2022-08-10T04:40:42.111Z,55.53
2022-08-10T04:43:54.175Z,55.59
2022-08-10T04:47:16.865Z,55.68
2022-08-10T04:54:15.516Z,56.00
2022-08-10T04:56:43.271Z,56.04
2022-08-10T04:59:12.166Z,56.00
2022-08-10T05:02:30.668Z,56.23
2022-08-10T05:04:37.271Z,56.53
2022-08-10T05:07:16.833Z,56.18
2022-08-10T05:10:04.878Z,56.17
2022-08-10T05:12:39.270Z,56.13
2022-08-10T05:19:16.984Z,56.31
2022-08-10T05:21:52.994Z,56.46
2022-08-10T05:24:32.058Z,56.49
2022-08-10T05:27:08.347Z,56.55
2022-08-10T05:29:36.999Z,56.49
2022-08-10T05:33:04.990Z,56.21
2022-08-10T05:43:22.416Z,56.78
2022-08-10T05:46:17.054Z,57.16
2022-08-10T05:48:58.939Z,57.23
2022-08-10T05:55:36.962Z,57.41
2022-08-10T05:58:20.592Z,57.15
2022-08-10T06:00:52.761Z,56.95
2022-08-10T06:03:51.004Z,57.01
2022-08-10T06:06:24.819Z,57.13
2022-08-10T06:09:01.075Z,57.05
2022-08-10T06:12:27.804Z,57.08
2022-08-10T06:18:30.766Z,57.22
2022-08-10T06:20:59.260Z,57.20
2022-08-10T06:23:29.128Z,56.56
2022-08-10T06:26:12.027Z,56.51
2022-08-10T06:28:52.996Z,56.40
2022-08-10T06:35:25.742Z,56.38
2022-08-10T06:38:42.417Z,56.09
2022-08-10T06:45:13.280Z,55.78
2022-08-10T06:48:09.313Z,55.58
2022-08-10T06:52:18.665Z,54.86
2022-08-10T06:54:48.392Z,54.87
2022-08-10T07:05:50.889Z,54.37
2022-08-10T07:08:21.379Z,54.12
2022-08-10T07:10:52.351Z,53.98
2022-08-10T07:14:15.392Z,53.77
2022-08-10T07:16:13.387Z,53.33
2022-08-10T07:27:03.624Z,53.44
2022-08-10T07:33:33.093Z,52.27
2022-08-10T07:36:01.677Z,52.31
2022-08-10T07:38:33.638Z,52.81
2022-08-10T07:41:03.543Z,52.55
2022-08-10T07:43:38.572Z,52.04
2022-08-10T07:46:10.765Z,51.96
2022-08-10T07:48:45.896Z,51.83
2022-08-10T07:51:15.464Z,51.46
2022-08-10T07:53:54.033Z,51.50
2022-08-10T07:56:47.868Z,51.42
2022-08-10T08:03:08.267Z,50.98
2022-08-10T08:06:37.429Z,50.38
2022-08-10T08:09:06.009Z,49.69
2022-08-10T08:11:36.067Z,50.43
2022-08-10T08:14:07.551Z,50.87
2022-08-10T08:16:38.619Z,49.92
2022-08-10T08:19:27.866Z,49.51
2022-08-10T08:24:10.247Z,49.94
2022-08-10T08:24:55.136Z,50.22
2022-08-10T08:27:26.135Z,49.98
2022-08-10T08:29:54.338Z,49.75
2022-08-10T08:32:31.220Z,48.82
2022-08-10T08:35:03.545Z,47.97
2022-08-10T08:38:31.298Z,48.33
2022-08-10T08:40:37.692Z,47.95
2022-08-10T08:43:32.127Z,46.91
2022-08-10T08:46:58.873Z,46.69
2022-08-10T08:50:07.618Z,46.71
2022-08-10T08:52:51.164Z,45.96
2022-08-10T08:56:05.654Z,46.10
2022-08-10T08:59:01.562Z,45.86
2022-08-10T09:02:15.064Z,45.53
2022-08-10T09:05:27.030Z,46.54
2022-08-10T09:08:21.596Z,46.41
2022-08-10T09:15:46.981Z,46.27
2022-08-10T09:18:24.059Z,46.42
2022-08-10T09:21:19.860Z,46.36
2022-08-10T09:24:06.420Z,44.47
2022-08-10T09:40:56.579Z,42.94
2022-08-10T09:43:14.125Z,42.75
2022-08-10T09:46:02.799Z,43.09
2022-08-10T09:48:50.593Z,42.15
2022-08-10T09:51:45.326Z,41.51
2022-08-10T09:54:38.080Z,41.73
2022-08-10T09:57:58.716Z,39.57
2022-08-10T10:00:51.588Z,40.01
2022-08-10T10:15:44.068Z,39.31
2022-08-10T10:18:29.462Z,38.70
2022-08-10T10:21:56.235Z,38.96
2022-08-10T10:24:40.801Z,38.08
2022-08-10T10:27:43.740Z,38.78
2022-08-10T10:31:16.657Z,36.86
2022-08-10T10:34:12.254Z,36.73
2022-08-10T10:36:44.943Z,37.13
2022-08-10T10:39:23.793Z,37.51
2022-08-10T10:42:35.039Z,37.32
2022-08-10T10:45:28.911Z,38.10
2022-08-10T10:48:24.116Z,37.09
2022-08-10T10:51:25.384Z,37.76
2022-08-10T10:54:19.392Z,38.03
2022-08-10T10:57:58.699Z,36.97
2022-08-10T11:08:38.563Z,34.97
2022-08-10T11:12:00.185Z,36.13
2022-08-10T11:14:48.436Z,35.33
2022-08-10T11:17:26.017Z,35.58
2022-08-10T11:21:03.586Z,34.33
2022-08-10T11:24:47.343Z,33.47
2022-08-10T11:35:11.487Z,32.88
2022-08-10T11:38:30.079Z,33.37
2022-08-10T11:42:08.839Z,31.76
2022-08-10T11:44:33.588Z,32.97
2022-08-10T11:47:15.369Z,31.27
2022-08-10T11:50:09.938Z,31.48
2022-08-10T11:52:56.618Z,32.07
2022-08-10T11:55:33.562Z,29.90
2022-08-10T11:58:08.967Z,30.62
2022-08-10T12:00:39.173Z,29.93
2022-08-10T12:03:08.732Z,31.39
2022-08-10T12:05:51.761Z,29.81
2022-08-10T12:10:03.671Z,29.66
2022-08-10T12:11:25.356Z,30.25
2022-08-10T12:14:20.901Z,29.28
2022-08-10T12:17:15.653Z,28.84
2022-08-10T12:20:08.681Z,27.65
2022-08-10T12:33:10.529Z,28.19
2022-08-10T12:36:22.367Z,28.50
2022-08-10T12:39:26.871Z,28.46
2022-08-10T12:42:06.241Z,27.75
2022-08-10T12:45:00.649Z,27.31
2022-08-10T12:48:08.175Z,26.54
2022-08-10T12:50:58.821Z,27.85
2022-08-10T12:53:55.507Z,27.21
2022-08-10T12:56:47.792Z,26.93
2022-08-10T12:59:16.476Z,27.95
2022-08-10T13:02:09.805Z,26.81
2022-08-10T13:08:47.173Z,28.42
2022-08-10T13:12:37.150Z,25.89
2022-08-10T13:14:24.067Z,24.52
2022-08-10T13:21:20.617Z,25.24
2022-08-10T13:24:03.557Z,23.74
2022-08-10T13:27:25.047Z,23.81
2022-08-10T13:29:36.727Z,23.75
2022-08-10T13:32:09.586Z,24.96
2022-08-10T13:35:02.423Z,24.33
2022-08-10T13:37:34.571Z,24.69
2022-08-10T13:40:04.188Z,25.82
2022-08-10T13:50:44.133Z,24.29
2022-08-10T13:53:15.508Z,23.62
2022-08-10T13:55:56.139Z,23.42
2022-08-10T13:58:39.341Z,23.36
2022-08-10T14:01:14.720Z,23.17
2022-08-10T14:03:44.633Z,24.12
2022-08-10T14:06:15.639Z,24.19
2022-08-10T14:08:54.748Z,23.95
2022-08-10T14:23:22.742Z,23.59
2022-08-10T14:32:01.902Z,23.09
2022-08-10T14:36:14.730Z,23.14
2022-08-10T14:37:41.715Z,24.00
2022-08-10T14:40:16.961Z,23.91
2022-08-10T14:43:04.474Z,24.30
2022-08-10T14:45:39.463Z,23.98
2022-08-10T14:48:16.483Z,23.84
2022-08-10T14:55:19.593Z,23.03
2022-08-10T14:58:19.269Z,22.70
2022-08-10T15:00:43.229Z,21.86
2022-08-10T15:04:01.630Z,23.13
2022-08-10T15:11:05.893Z,22.70
2022-08-10T15:14:29.411Z,23.05
2022-08-10T15:16:59.968Z,23.37
2022-08-10T15:20:03.266Z,22.54
2022-08-10T15:26:22.707Z,22.44
2022-08-10T15:29:23.162Z,22.61
2022-08-10T15:40:24.725Z,23.42
2022-08-10T15:43:24.657Z,23.17
2022-08-10T15:50:13.953Z,23.17
2022-08-10T15:53:01.543Z,23.77
2022-08-10T15:56:05.020Z,24.32
2022-08-10T15:58:50.084Z,24.06
2022-08-10T16:02:12.527Z,23.71
2022-08-10T16:05:16.825Z,23.76
2022-08-10T16:07:57.787Z,24.62
2022-08-10T16:10:38.960Z,24.26
2022-08-10T16:13:50.932Z,24.58
2022-08-10T16:16:04.687Z,25.16
2022-08-10T16:18:38.396Z,26.18
2022-08-10T16:21:20.672Z,25.71
2022-08-10T16:27:47.843Z,26.79
2022-08-10T16:30:16.258Z,26.81
2022-08-10T16:37:59.005Z,27.49
2022-08-10T16:45:06.566Z,28.56
2022-08-10T16:47:45.618Z,29.21
2022-08-10T16:54:27.626Z,29.49
2022-08-10T17:01:12.023Z,30.11
2022-08-10T17:04:08.253Z,30.16
2022-08-10T17:06:42.482Z,30.42
2022-08-10T17:09:20.029Z,30.49
2022-08-10T17:11:51.570Z,29.88
2022-08-10T17:14:24.009Z,30.11
2022-08-10T17:17:00.192Z,31.00
2022-08-10T17:19:42.580Z,30.90
2022-08-10T17:22:20.439Z,30.17
2022-08-10T17:25:01.995Z,30.08
2022-08-10T17:28:04.843Z,30.01
2022-08-10T17:30:35.246Z,29.68
2022-08-10T17:34:54.362Z,29.64
2022-08-10T17:37:27.089Z,30.71
2022-08-10T17:40:18.948Z,31.12
2022-08-10T17:43:07.199Z,31.74
2022-08-10T17:45:46.777Z,32.44
2022-08-10T17:48:25.191Z,32.81
2022-08-10T17:55:40.475Z,32.31
2022-08-10T18:02:29.810Z,32.84
2022-08-10T18:05:00.294Z,34.07
2022-08-10T18:11:33.007Z,34.94
2022-08-10T18:14:07.223Z,34.78
2022-08-10T18:17:20.436Z,35.53
2022-08-10T18:19:56.765Z,36.59
2022-08-10T18:23:24.813Z,37.47
2022-08-10T18:26:00.986Z,36.95
2022-08-10T18:28:31.121Z,37.97
2022-08-10T18:31:00.927Z,37.14
2022-08-10T18:33:44.061Z,37.64
2022-08-10T18:41:11.123Z,38.34
2022-08-10T18:44:06.298Z,37.88
2022-08-10T18:56:09.347Z,40.20
2022-08-10T18:59:05.597Z,39.91
2022-08-10T19:02:01.756Z,39.96
2022-08-10T19:05:30.879Z,38.81
2022-08-10T19:08:30.662Z,40.38
2022-08-10T19:11:20.636Z,40.80
2022-08-10T19:18:04.085Z,40.51
2022-08-10T19:21:06.806Z,40.48
2022-08-10T19:24:07.638Z,40.58
2022-08-10T19:27:15.393Z,40.12
2022-08-10T19:30:12.889Z,40.88
2022-08-10T19:33:08.260Z,41.56
2022-08-10T19:40:01.626Z,41.04
2022-08-10T19:43:09.029Z,40.96
2022-08-10T19:50:01.363Z,41.81
2022-08-10T19:57:05.628Z,42.73
2022-08-10T20:00:15.132Z,42.11
2022-08-10T20:07:21.763Z,42.73
2022-08-10T20:10:23.435Z,41.88
2022-08-10T20:13:11.763Z,42.52
2022-08-10T20:16:06.116Z,42.43
2022-08-10T20:18:48.701Z,43.15
2022-08-10T20:21:36.376Z,42.37
2022-08-10T20:24:10.828Z,42.76
2022-08-10T20:26:51.910Z,42.82
2022-08-10T20:29:59.497Z,43.20
2022-08-10T20:32:53.685Z,43.30
2022-08-10T20:35:43.924Z,43.46
2022-08-10T20:38:38.093Z,42.57
2022-08-10T20:42:01.408Z,42.68
2022-08-10T20:45:01.878Z,42.40
2022-08-10T20:47:57.033Z,40.82
2022-08-10T20:51:11.621Z,42.14
2022-08-10T20:53:50.142Z,43.21
2022-08-10T20:57:53.624Z,43.64
2022-08-10T21:00:11.335Z,43.39
2022-08-10T21:03:43.991Z,42.66
2022-08-10T21:06:41.746Z,43.54
2022-08-10T21:09:56.519Z,44.67
2022-08-10T21:13:19.452Z,43.23
2022-08-10T21:16:02.778Z,43.49
2022-08-10T21:19:52.159Z,42.97
2022-08-10T21:22:30.320Z,43.74
2022-08-10T21:25:07.451Z,43.71
2022-08-10T21:28:08.740Z,43.93
2022-08-10T21:31:22.025Z,44.36
2022-08-10T21:34:31.820Z,44.58
2022-08-10T21:37:11.199Z,43.49
2022-08-10T21:40:34.669Z,44.17
2022-08-10T21:43:51.448Z,44.73
2022-08-10T21:46:39.129Z,44.83
2022-08-10T21:50:07.262Z,43.98
2022-08-10T21:56:59.040Z,45.26
2022-08-10T21:59:42.702Z,45.33
2022-08-10T22:02:16.479Z,45.23
2022-08-10T22:09:09.047Z,45.83
2022-08-10T22:11:49.476Z,45.77
2022-08-10T22:14:33.848Z,45.51
2022-08-10T22:17:05.551Z,45.83
2022-08-10T22:19:48.298Z,46.01
2022-08-10T22:22:40.908Z,45.81
2022-08-10T22:25:46.930Z,46.55
2022-08-10T22:28:20.202Z,47.13
2022-08-10T22:31:50.409Z,46.92
2022-08-10T22:34:52.830Z,47.02
2022-08-10T22:37:19.933Z,47.21
2022-08-10T22:40:16.438Z,47.21
2022-08-10T22:42:59.548Z,47.35
2022-08-10T22:45:37.340Z,47.41
2022-08-10T22:48:06.840Z,46.88
2022-08-10T22:50:35.336Z,46.96
2022-08-10T22:53:07.668Z,47.18
2022-08-10T22:55:39.989Z,46.49
2022-08-10T22:58:07.679Z,46.93
2022-08-10T23:00:36.481Z,46.84
2022-08-10T23:03:23.697Z,46.97
2022-08-10T23:06:14.672Z,47.21
2022-08-10T23:09:00.587Z,47.26
2022-08-10T23:11:40.360Z,47.41
2022-08-10T23:14:12.805Z,47.58
2022-08-10T23:16:49.307Z,47.79
2022-08-10T23:19:27.114Z,47.61
2022-08-10T23:22:05.854Z,48.02
2022-08-10T23:24:41.645Z,47.87
2022-08-10T23:27:37.442Z,48.32
2022-08-10T23:30:10.633Z,48.15
2022-08-10T23:32:59.585Z,48.29
2022-08-10T23:36:31.268Z,48.78
2022-08-10T23:38:22.259Z,49.01
2022-08-10T23:40:53.792Z,48.64
2022-08-10T23:43:46.581Z,48.41
2022-08-10T23:46:22.333Z,48.17
2022-08-10T23:48:56.374Z,48.15
2022-08-10T23:51:55.444Z,48.60
2022-08-10T23:54:26.389Z,49.06
2022-08-10T23:57:00.980Z,48.26
2022-08-10T23:59:32.228Z,48.70
